Time;durP1;ratioP1;P1;durP2;ratioP2;P2;SDS_P1;SDS_P2;PMS_P1;PMS_P2;Temp;Humidity;BMP_temperature;BMP_pressure;BME280_temperature;BME280_humidity;BME280_pressure;Samples;Min_cycle;Max_cycle;Signal;HPM_P1;HPM_P2
2021/06/24 00:01:04;;;;;;;3.73;2.47;;;15.70;99.90;;;;;;5001354;28;20506;-59
2021/06/24 00:03:32;;;;;;;2.00;1.80;;;15.70;99.90;;;;;;5004068;28;20441;-58
2021/06/24 00:05:59;;;;;;;2.40;2.20;;;15.70;99.90;;;;;;5006901;28;20974;-60
2021/06/24 00:08:25;;;;;;;1.97;1.80;;;15.70;99.90;;;;;;5009231;28;20751;-59
2021/06/24 00:10:53;;;;;;;2.30;1.80;;;15.70;99.90;;;;;;5003954;28;20443;-58
2021/06/24 00:13:20;;;;;;;2.60;1.93;;;15.70;99.90;;;;;;5004434;28;20415;-58
2021/06/24 00:15:46;;;;;;;2.07;1.87;;;15.60;99.90;;;;;;5004983;28;20750;-58
2021/06/24 00:18:12;;;;;;;2.17;1.97;;;15.60;99.90;;;;;;5003203;28;20455;-60
2021/06/24 00:20:40;;;;;;;2.00;1.90;;;15.60;99.90;;;;;;5008425;28;20427;-58
2021/06/24 00:23:06;;;;;;;3.03;2.20;;;15.70;99.90;;;;;;5010093;28;20936;-58
2021/06/24 00:25:32;;;;;;;1.97;1.87;;;15.70;99.90;;;;;;5003374;28;20491;-59
2021/06/24 00:27:58;;;;;;;2.67;2.47;;;15.70;99.90;;;;;;5000168;28;20557;-58
2021/06/24 00:30:24;;;;;;;2.30;2.10;;;15.60;99.90;;;;;;5008945;28;20426;-60
2021/06/24 00:32:50;;;;;;;2.80;1.90;;;15.60;99.90;;;;;;5008971;28;20185;-59
2021/06/24 00:35:16;;;;;;;1.90;1.80;;;15.60;99.90;;;;;;5009708;28;20698;-59
2021/06/24 00:37:43;;;;;;;3.33;2.27;;;15.60;99.90;;;;;;5000264;28;20279;-59
2021/06/24 00:40:10;;;;;;;3.07;2.43;;;15.60;99.90;;;;;;5004886;28;20430;-58
2021/06/24 00:42:36;;;;;;;3.13;2.40;;;15.60;99.90;;;;;;5009411;28;20430;-59
2021/06/24 00:45:04;;;;;;;2.90;2.23;;;15.60;99.90;;;;;;5002844;28;20428;-58
2021/06/24 00:47:30;;;;;;;4.33;2.33;;;15.60;99.90;;;;;;5008157;28;20461;-58
2021/06/24 00:49:55;;;;;;;3.67;1.90;;;15.60;99.90;;;;;;5009591;28;20419;-58
2021/06/24 00:52:21;;;;;;;5.70;2.40;;;15.60;99.90;;;;;;5005273;28;20170;-58
2021/06/24 00:54:47;;;;;;;2.57;2.37;;;15.60;99.90;;;;;;5006337;28;20173;-57
2021/06/24 00:57:12;;;;;;;2.50;2.30;;;15.60;99.90;;;;;;5008064;28;20196;-57
2021/06/24 00:59:38;;;;;;;1.63;1.53;;;15.60;99.90;;;;;;5008352;28;20203;-58
2021/06/24 01:02:05;;;;;;;2.93;2.13;;;15.60;99.90;;;;;;5003324;28;20182;-57
2021/06/24 01:04:32;;;;;;;5.50;2.23;;;15.60;99.90;;;;;;5005564;28;20258;-59
2021/06/24 01:06:58;;;;;;;3.60;2.30;;;15.50;99.90;;;;;;5006398;28;20470;-59
2021/06/24 01:09:24;;;;;;;4.00;2.50;;;15.50;99.90;;;;;;5005573;28;20424;-57
2021/06/24 01:11:50;;;;;;;2.97;2.60;;;15.50;99.90;;;;;;5004689;28;20790;-58
2021/06/24 01:14:16;;;;;;;5.33;2.40;;;15.50;99.90;;;;;;5006624;28;20195;-58
2021/06/24 01:16:42;;;;;;;3.33;2.30;;;15.50;99.90;;;;;;5006125;28;20444;-57
2021/06/24 01:19:10;;;;;;;2.50;2.30;;;15.50;99.90;;;;;;4999162;28;20423;-57
2021/06/24 01:21:36;;;;;;;4.50;2.73;;;15.50;99.90;;;;;;5001266;28;20447;-58
2021/06/24 01:24:02;;;;;;;6.97;2.77;;;15.50;99.90;;;;;;5008748;28;20423;-57
2021/06/24 01:26:28;;;;;;;3.30;2.60;;;15.50;99.90;;;;;;5005192;28;20339;-58
2021/06/24 01:28:53;;;;;;;4.00;2.63;;;15.50;99.90;;;;;;5006121;28;20176;-58
2021/06/24 01:31:21;;;;;;;3.23;2.50;;;15.50;99.90;;;;;;5006698;28;20226;-57
2021/06/24 01:33:48;;;;;;;2.13;1.93;;;15.50;99.90;;;;;;5007539;28;20217;-59
2021/06/24 01:36:14;;;;;;;2.87;2.37;;;15.50;99.90;;;;;;5008842;28;20439;-58
2021/06/24 01:38:44;;;;;;;3.10;2.70;;;15.50;99.90;;;;;;5005470;28;20908;-59
2021/06/24 01:41:14;;;;;;;4.90;2.40;;;15.60;99.90;;;;;;4998683;28;20437;-57
2021/06/24 01:43:40;;;;;;;3.03;2.63;;;15.50;99.90;;;;;;5003909;28;21033;-58
2021/06/24 01:46:06;;;;;;;2.90;2.60;;;15.50;99.90;;;;;;5007026;28;20428;-57
2021/06/24 01:48:32;;;;;;;3.70;2.60;;;15.50;99.90;;;;;;5002033;28;20466;-59
2021/06/24 01:51:01;;;;;;;4.47;2.40;;;15.50;99.90;;;;;;4998106;28;20183;-57
2021/06/24 01:53:27;;;;;;;3.07;2.70;;;15.50;99.90;;;;;;5008795;28;20173;-58
2021/06/24 01:55:54;;;;;;;3.07;2.37;;;15.40;99.90;;;;;;4992076;28;20929;-58
2021/06/24 01:58:23;;;;;;;3.10;2.67;;;15.40;99.90;;;;;;5007315;28;20219;-58
2021/06/24 02:00:52;;;;;;;9.27;2.80;;;15.40;99.90;;;;;;4994724;28;20534;-56
2021/06/24 02:03:18;;;;;;;3.57;2.60;;;15.40;99.90;;;;;;5003530;28;20507;-58
2021/06/24 02:05:51;;;;;;;4.90;2.60;;;15.40;99.90;;;;;;5003443;28;20936;-59
2021/06/24 02:08:23;;;;;;;6.33;2.60;;;15.30;99.90;;;;;;5028458;28;20462;-58
2021/06/24 02:10:50;;;;;;;3.90;2.60;;;15.30;99.90;;;;;;5002316;28;20400;-57
2021/06/24 02:13:16;;;;;;;5.40;2.67;;;15.30;99.90;;;;;;5004871;28;20446;-59
2021/06/24 02:15:42;;;;;;;3.40;2.80;;;15.30;99.90;;;;;;5006011;28;20503;-58
2021/06/24 02:18:09;;;;;;;3.33;3.03;;;15.30;99.90;;;;;;5007067;28;20801;-60
2021/06/24 02:20:35;;;;;;;4.20;2.93;;;15.30;99.90;;;;;;5003629;28;20432;-57
2021/06/24 02:23:01;;;;;;;4.63;2.77;;;15.30;99.90;;;;;;5008234;28;20503;-58
2021/06/24 02:25:27;;;;;;;3.10;2.37;;;15.30;99.90;;;;;;5004946;28;20892;-59
2021/06/24 02:27:54;;;;;;;3.17;2.87;;;15.30;99.90;;;;;;5006385;28;20992;-59
2021/06/24 02:30:20;;;;;;;3.53;2.90;;;15.30;99.90;;;;;;4994921;28;20432;-59
2021/06/24 02:32:47;;;;;;;6.83;2.90;;;15.30;99.90;;;;;;4995309;28;21155;-59
2021/06/24 02:35:14;;;;;;;2.87;2.60;;;15.20;99.90;;;;;;5006738;28;20423;-59
2021/06/24 02:37:42;;;;;;;3.60;2.70;;;15.20;99.90;;;;;;5005218;28;21054;-59
2021/06/24 02:40:09;;;;;;;8.20;3.07;;;15.20;99.90;;;;;;5005529;28;20514;-57
2021/06/24 02:42:34;;;;;;;3.77;3.10;;;15.20;99.90;;;;;;5005820;28;20943;-58
2021/06/24 02:45:00;;;;;;;8.10;3.30;;;15.10;99.90;;;;;;5007605;28;20431;-59
2021/06/24 02:47:26;;;;;;;9.53;3.10;;;15.10;99.90;;;;;;5024084;23;20326;-61
2021/06/24 02:49:52;;;;;;;5.07;3.03;;;15.00;99.90;;;;;;5028907;28;20215;-60
2021/06/24 02:52:18;;;;;;;3.00;2.60;;;15.00;99.90;;;;;;5026587;28;20168;-62
2021/06/24 02:54:43;;;;;;;11.50;3.37;;;14.90;99.90;;;;;;5027342;28;20183;-60
2021/06/24 02:57:09;;;;;;;3.60;2.90;;;14.90;99.90;;;;;;5026033;28;20738;-61
2021/06/24 02:59:35;;;;;;;3.47;3.17;;;14.80;99.90;;;;;;5028526;28;20217;-61
2021/06/24 03:02:01;;;;;;;4.00;3.10;;;14.80;99.90;;;;;;5027769;28;20606;-61
2021/06/24 03:04:27;;;;;;;5.60;3.50;;;14.70;99.90;;;;;;5029177;28;20415;-63
2021/06/24 03:06:54;;;;;;;3.87;3.40;;;14.70;99.90;;;;;;5026895;28;20286;-61
2021/06/24 03:09:20;;;;;;;4.60;3.43;;;14.70;99.90;;;;;;5027865;28;20287;-60
2021/06/24 03:11:47;;;;;;;5.23;4.40;;;14.70;99.90;;;;;;5026803;28;20407;-61
2021/06/24 03:14:13;;;;;;;5.97;5.37;;;14.70;99.90;;;;;;5023756;28;20473;-60
2021/06/24 03:16:40;;;;;;;9.57;5.63;;;14.70;99.90;;;;;;5017519;28;20453;-60
2021/06/24 03:19:06;;;;;;;12.70;7.27;;;14.70;99.90;;;;;;5024672;28;20446;-60
2021/06/24 03:21:32;;;;;;;7.70;5.40;;;14.70;99.90;;;;;;5027374;28;20513;-60
2021/06/24 03:23:58;;;;;;;9.87;6.80;;;14.70;99.90;;;;;;5027106;28;20526;-60
2021/06/24 03:26:24;;;;;;;16.07;8.40;;;14.70;99.90;;;;;;5027429;28;20924;-60
2021/06/24 03:28:49;;;;;;;9.23;5.90;;;14.70;99.90;;;;;;5026474;28;20183;-61
2021/06/24 03:31:15;;;;;;;11.40;5.20;;;14.70;99.90;;;;;;5027360;28;20176;-60
2021/06/24 03:33:41;;;;;;;7.00;5.33;;;14.80;99.90;;;;;;5022753;28;20544;-63
2021/06/24 03:36:07;;;;;;;20.90;10.23;;;14.80;99.90;;;;;;5028078;28;20182;-60
2021/06/24 03:38:33;;;;;;;19.80;11.33;;;14.90;99.90;;;;;;5029003;28;20195;-60
2021/06/24 03:40:59;;;;;;;18.93;10.67;;;14.90;99.90;;;;;;5028424;28;20887;-60
2021/06/24 03:43:24;;;;;;;20.23;11.73;;;14.90;99.90;;;;;;5031130;28;20183;-60
2021/06/24 03:45:50;;;;;;;14.80;11.00;;;14.90;99.90;;;;;;5032938;28;20176;-60
2021/06/24 03:48:16;;;;;;;15.73;11.17;;;14.90;99.90;;;;;;5026982;28;20199;-60
2021/06/24 03:50:41;;;;;;;13.27;9.33;;;14.90;99.90;;;;;;5027569;28;20176;-61
2021/06/24 03:53:07;;;;;;;18.30;10.03;;;14.90;99.90;;;;;;5031271;28;20179;-61
2021/06/24 03:55:46;;;;;;;12.37;9.73;;;15.00;99.90;;;;;;5030789;28;20179;-60
2021/06/24 03:58:13;;;;;;;14.10;9.43;;;15.00;99.90;;;;;;5025524;28;20195;-60
2021/06/24 04:00:42;;;;;;;14.17;10.20;;;15.00;99.90;;;;;;5029246;28;20485;-60
2021/06/24 04:03:09;;;;;;;13.70;10.50;;;15.00;99.90;;;;;;5027438;28;20938;-61
2021/06/24 04:05:35;;;;;;;14.33;9.87;;;15.00;99.90;;;;;;5029833;28;20765;-61
2021/06/24 04:08:02;;;;;;;16.10;8.77;;;15.00;99.90;;;;;;5031612;28;20465;-61
2021/06/24 04:10:28;;;;;;;12.07;8.37;;;15.00;99.90;;;;;;5029556;28;20176;-61
2021/06/24 04:12:54;;;;;;;16.80;8.13;;;15.00;99.90;;;;;;5026011;28;20434;-60
2021/06/24 04:15:21;;;;;;;11.17;7.23;;;15.00;99.90;;;;;;5032150;28;20425;-60
2021/06/24 04:17:47;;;;;;;17.10;7.80;;;15.00;99.90;;;;;;5024998;28;20477;-59
2021/06/24 04:20:13;;;;;;;10.53;7.10;;;14.90;99.90;;;;;;5026891;28;20818;-59
2021/06/24 04:22:39;;;;;;;10.60;8.17;;;14.90;99.90;;;;;;5030639;28;20596;-61
2021/06/24 04:25:05;;;;;;;14.70;8.23;;;14.90;99.90;;;;;;5026178;28;20525;-61
2021/06/24 04:27:31;;;;;;;26.40;10.17;;;14.90;99.90;;;;;;5026789;28;20234;-61
2021/06/24 04:29:57;;;;;;;18.17;11.30;;;14.90;99.90;;;;;;5022073;28;21220;-60
2021/06/24 04:32:22;;;;;;;17.30;9.23;;;14.90;99.90;;;;;;5023108;28;20180;-61
2021/06/24 04:34:48;;;;;;;23.43;12.83;;;14.90;99.90;;;;;;5024626;28;20255;-61
2021/06/24 04:37:14;;;;;;;19.40;11.33;;;14.90;99.90;;;;;;5020195;28;20649;-61
2021/06/24 04:39:39;;;;;;;13.63;8.53;;;14.90;99.90;;;;;;5020959;28;20189;-63
2021/06/24 04:42:05;;;;;;;12.13;6.93;;;14.90;99.90;;;;;;5023067;28;20191;-62
2021/06/24 04:44:30;;;;;;;25.50;11.80;;;14.90;99.90;;;;;;5027973;28;20178;-62
2021/06/24 04:46:56;;;;;;;18.43;10.73;;;15.00;99.90;;;;;;5022358;28;20688;-62
2021/06/24 04:49:22;;;;;;;18.10;9.37;;;14.90;99.90;;;;;;5021217;28;20215;-60
2021/06/24 04:51:48;;;;;;;8.90;7.13;;;14.90;99.90;;;;;;5025461;28;20203;-62
2021/06/24 04:54:13;;;;;;;9.90;6.80;;;14.90;99.90;;;;;;5022435;28;20629;-61
2021/06/24 04:56:39;;;;;;;8.63;6.13;;;14.90;99.90;;;;;;5016504;28;20760;-61
2021/06/24 04:59:05;;;;;;;6.17;5.27;;;14.90;99.90;;;;;;5024073;28;20282;-61
2021/06/24 05:01:31;;;;;;;7.50;5.43;;;14.90;99.90;;;;;;5024698;28;20250;-61
2021/06/24 05:03:56;;;;;;;5.83;5.17;;;15.00;99.90;;;;;;5020569;28;20469;-62
2021/06/24 05:06:22;;;;;;;9.97;5.43;;;15.00;99.90;;;;;;5026003;28;20208;-59
2021/06/24 05:08:48;;;;;;;12.30;4.80;;;15.00;99.90;;;;;;5020686;28;20694;-61
2021/06/24 05:11:15;;;;;;;5.20;4.47;;;15.10;99.90;;;;;;5027824;28;20656;-62
2021/06/24 05:13:41;;;;;;;5.53;5.00;;;15.10;99.90;;;;;;5029660;28;20961;-61
2021/06/24 05:16:07;;;;;;;5.60;4.93;;;15.10;99.90;;;;;;5030856;28;20395;-63
2021/06/24 05:18:35;;;;;;;5.13;4.60;;;15.10;99.90;;;;;;5026640;28;20458;-62
2021/06/24 05:21:01;;;;;;;5.07;4.67;;;15.20;99.90;;;;;;5026802;28;20733;-62
2021/06/24 05:23:27;;;;;;;15.00;9.60;;;15.20;99.90;;;;;;5029701;28;20407;-62
2021/06/24 05:25:53;;;;;;;10.97;7.70;;;15.30;99.90;;;;;;5027730;28;20427;-62
2021/06/24 05:28:19;;;;;;;5.83;5.23;;;15.40;99.90;;;;;;5027112;28;20199;-62
2021/06/24 05:30:46;;;;;;;7.33;5.30;;;15.40;99.90;;;;;;5027649;28;20517;-62
2021/06/24 05:33:12;;;;;;;7.83;5.90;;;15.50;99.90;;;;;;5030409;28;20160;-62
2021/06/24 05:35:38;;;;;;;7.90;6.50;;;15.50;99.90;;;;;;5019771;28;20857;-62
2021/06/24 05:38:04;;;;;;;7.00;5.77;;;15.50;99.90;;;;;;5024084;28;20548;-61
2021/06/24 05:40:30;;;;;;;7.63;6.37;;;15.50;99.90;;;;;;5028706;28;20732;-61
2021/06/24 05:42:55;;;;;;;7.07;6.37;;;15.50;99.90;;;;;;5027927;28;20218;-62
2021/06/24 05:45:27;;;;;;;8.70;7.70;;;15.60;99.90;;;;;;5030059;28;20426;-62
2021/06/24 05:47:54;;;;;;;11.33;8.70;;;15.70;99.90;;;;;;5023983;28;20208;-61
2021/06/24 05:50:20;;;;;;;10.70;8.23;;;15.80;99.90;;;;;;5024631;28;20492;-62
2021/06/24 05:52:46;;;;;;;13.20;9.87;;;15.90;99.90;;;;;;5023908;28;20436;-63
2021/06/24 05:55:12;;;;;;;15.10;10.50;;;16.00;99.90;;;;;;5025016;28;20533;-62
2021/06/24 05:57:37;;;;;;;13.27;11.23;;;16.10;99.90;;;;;;5023357;28;20290;-62
2021/06/24 06:00:05;;;;;;;12.53;10.73;;;16.20;99.90;;;;;;5017170;28;20521;-61
2021/06/24 06:02:31;;;;;;;15.00;11.40;;;16.30;99.90;;;;;;5020778;28;20168;-62
2021/06/24 06:04:58;;;;;;;16.27;11.87;;;16.30;99.90;;;;;;5024403;28;20931;-63
2021/06/24 06:07:24;;;;;;;14.73;11.90;;;16.40;99.90;;;;;;5026936;28;20200;-63
2021/06/24 06:09:50;;;;;;;14.00;11.30;;;16.30;99.90;;;;;;5025504;28;20496;-63
2021/06/24 06:12:15;;;;;;;15.13;11.43;;;16.30;99.90;;;;;;5023956;28;20184;-62
2021/06/24 06:14:41;;;;;;;18.03;13.00;;;16.30;99.90;;;;;;5025386;28;20195;-63
2021/06/24 06:17:07;;;;;;;19.40;12.60;;;16.30;99.90;;;;;;5021731;28;20177;-62
2021/06/24 06:19:33;;;;;;;15.30;11.50;;;16.30;99.90;;;;;;5026172;28;20183;-62
2021/06/24 06:21:58;;;;;;;13.73;10.50;;;16.30;99.90;;;;;;5019365;28;20182;-62
2021/06/24 06:24:24;;;;;;;11.27;9.90;;;16.20;99.90;;;;;;5037681;28;20206;-62
2021/06/24 06:26:49;;;;;;;10.33;8.67;;;16.20;99.90;;;;;;5046431;28;20206;-63
2021/06/24 06:29:15;;;;;;;10.20;8.83;;;16.20;99.90;;;;;;5042382;28;20226;-62
2021/06/24 06:31:41;;;;;;;11.27;9.40;;;16.20;99.90;;;;;;5045769;28;20171;-62
2021/06/24 06:34:08;;;;;;;11.87;8.77;;;16.20;99.90;;;;;;5042443;28;20168;-63
2021/06/24 06:36:34;;;;;;;13.60;10.03;;;16.10;99.90;;;;;;5046253;28;20172;-64
2021/06/24 06:39:00;;;;;;;20.67;11.40;;;16.20;99.90;;;;;;5045028;28;20468;-63
2021/06/24 06:41:26;;;;;;;19.13;12.80;;;16.20;99.90;;;;;;5043839;28;20427;-62
2021/06/24 06:43:51;;;;;;;17.03;11.20;;;16.20;99.90;;;;;;5038490;28;20172;-62
2021/06/24 06:46:17;;;;;;;18.50;11.80;;;16.30;99.90;;;;;;5040722;28;20238;-62
2021/06/24 06:48:43;;;;;;;16.53;11.10;;;16.40;99.90;;;;;;5040921;28;20196;-62
2021/06/24 06:51:09;;;;;;;14.20;8.67;;;16.50;99.90;;;;;;5022143;28;20659;-61
2021/06/24 06:53:34;;;;;;;11.57;9.07;;;16.50;99.90;;;;;;5026022;28;20710;-62
2021/06/24 06:56:00;;;;;;;13.17;9.47;;;16.50;99.90;;;;;;5025847;28;20426;-62
2021/06/24 06:58:26;;;;;;;10.33;8.87;;;16.50;99.90;;;;;;5023968;28;20196;-62
2021/06/24 07:00:51;;;;;;;20.20;9.50;;;16.50;99.90;;;;;;5023893;28;20800;-62
2021/06/24 07:03:17;;;;;;;12.90;9.00;;;16.50;99.90;;;;;;5024360;28;20596;-63
2021/06/24 07:05:43;;;;;;;14.63;10.10;;;16.50;99.90;;;;;;5022251;28;20201;-62
2021/06/24 07:08:09;;;;;;;10.63;8.40;;;16.50;99.90;;;;;;5016108;28;20204;-61
2021/06/24 07:10:34;;;;;;;10.33;7.97;;;16.50;99.90;;;;;;5023515;28;20645;-62
2021/06/24 07:13:00;;;;;;;7.67;6.60;;;16.50;99.90;;;;;;5023086;28;20423;-63
2021/06/24 07:15:26;;;;;;;5.73;4.87;;;16.50;99.90;;;;;;5021298;28;20175;-62
2021/06/24 07:17:52;;;;;;;6.63;5.07;;;16.50;99.90;;;;;;5013624;28;20207;-62
2021/06/24 07:20:17;;;;;;;5.03;4.50;;;16.50;99.90;;;;;;5022685;28;20188;-62
2021/06/24 07:22:43;;;;;;;5.37;4.27;;;16.60;99.90;;;;;;5023209;28;20194;-62
2021/06/24 07:25:11;;;;;;;5.50;4.53;;;16.70;99.90;;;;;;5025161;28;20184;-62
2021/06/24 07:27:37;;;;;;;5.90;4.27;;;16.80;99.90;;;;;;5021974;28;20613;-63
2021/06/24 07:30:05;;;;;;;5.70;3.80;;;16.90;99.90;;;;;;5014127;28;20528;-64
2021/06/24 07:32:30;;;;;;;4.37;3.97;;;16.90;99.90;;;;;;5026103;28;20450;-62
2021/06/24 07:34:56;;;;;;;5.47;4.23;;;16.90;99.90;;;;;;5017918;28;20458;-59
2021/06/24 07:37:22;;;;;;;6.43;3.87;;;16.90;99.90;;;;;;5019201;28;20188;-60
2021/06/24 07:39:48;;;;;;;4.47;4.07;;;16.90;99.90;;;;;;5020551;28;20653;-60
2021/06/24 07:42:14;;;;;;;5.13;3.53;;;17.00;99.90;;;;;;5020066;28;20230;-58
2021/06/24 07:44:40;;;;;;;4.53;3.40;;;17.00;99.90;;;;;;5014798;28;20446;-59
2021/06/24 07:47:05;;;;;;;3.00;2.80;;;16.90;99.90;;;;;;5024146;28;20462;-59
2021/06/24 07:49:31;;;;;;;2.87;2.63;;;16.90;99.90;;;;;;4970950;28;1121114;-59
2021/06/24 07:51:57;;;;;;;3.13;2.83;;;16.90;99.90;;;;;;5019090;28;21916;-58
2021/06/24 07:54:23;;;;;;;2.90;2.70;;;16.90;99.90;;;;;;5019143;28;20740;-60
2021/06/24 07:56:48;;;;;;;3.90;2.70;;;16.90;99.90;;;;;;5022135;28;20442;-61
2021/06/24 07:59:16;;;;;;;3.40;2.50;;;17.00;99.90;;;;;;5017846;28;20208;-62
2021/06/24 08:01:42;;;;;;;3.97;2.43;;;17.00;99.90;;;;;;5007256;28;20184;-62
2021/06/24 08:04:09;;;;;;;7.40;2.97;;;17.00;99.90;;;;;;5009475;28;20489;-63
2021/06/24 08:06:35;;;;;;;2.50;2.30;;;17.10;99.90;;;;;;5010269;28;20947;-63
2021/06/24 08:09:01;;;;;;;7.10;2.40;;;17.20;99.90;;;;;;5014217;28;20470;-62
2021/06/24 08:11:26;;;;;;;4.47;2.50;;;17.30;99.90;;;;;;5012713;28;20172;-62
2021/06/24 08:13:52;;;;;;;2.47;2.27;;;17.30;99.90;;;;;;5015751;28;20187;-62
2021/06/24 08:16:18;;;;;;;3.27;2.17;;;17.30;99.90;;;;;;5014432;28;20184;-62
2021/06/24 08:18:43;;;;;;;3.90;2.23;;;17.20;99.90;;;;;;5014303;28;20203;-62
2021/06/24 08:21:10;;;;;;;1.93;1.83;;;17.20;99.90;;;;;;5013555;28;20203;-62
2021/06/24 08:23:38;;;;;;;2.87;2.30;;;17.20;99.90;;;;;;5018085;28;20184;-63
2021/06/24 08:26:04;;;;;;;2.50;2.23;;;17.20;99.90;;;;;;5025885;28;20487;-60
2021/06/24 08:28:30;;;;;;;3.63;1.90;;;17.20;99.90;;;;;;5021589;28;20643;-62
2021/06/24 08:30:59;;;;;;;2.40;2.00;;;17.30;99.90;;;;;;5022831;28;21052;-64
2021/06/24 08:33:25;;;;;;;2.10;1.73;;;17.40;99.90;;;;;;5017243;28;20430;-63
2021/06/24 08:35:51;;;;;;;2.67;2.03;;;17.40;99.90;;;;;;5023849;28;20871;-61
2021/06/24 08:38:17;;;;;;;2.00;1.80;;;17.50;99.90;;;;;;5022009;28;20231;-61
2021/06/24 08:40:42;;;;;;;2.03;1.43;;;17.60;99.90;;;;;;5021452;28;20180;-61
2021/06/24 08:43:09;;;;;;;2.87;1.60;;;17.70;99.90;;;;;;5022169;28;20640;-62
2021/06/24 08:45:34;;;;;;;1.57;1.47;;;17.80;99.90;;;;;;5023949;28;20248;-62
2021/06/24 08:48:01;;;;;;;2.67;1.80;;;17.90;99.90;;;;;;5021910;28;20473;-62
2021/06/24 08:50:27;;;;;;;2.63;1.63;;;17.90;99.90;;;;;;5022845;28;20176;-62
2021/06/24 08:52:55;;;;;;;4.83;1.90;;;18.10;99.90;;;;;;5016153;28;20418;-62
2021/06/24 08:55:21;;;;;;;1.77;1.67;;;18.40;99.90;;;;;;5021727;28;20426;-63
2021/06/24 08:57:47;;;;;;;2.87;1.77;;;18.60;99.90;;;;;;5020804;28;20454;-63
2021/06/24 09:00:14;;;;;;;2.43;1.67;;;18.60;99.90;;;;;;5016022;28;20430;-62
2021/06/24 09:02:40;;;;;;;2.00;1.63;;;18.50;99.60;;;;;;5017259;28;20442;-63
2021/06/24 09:05:08;;;;;;;2.07;1.70;;;18.40;99.90;;;;;;5021382;28;20917;-61
2021/06/24 09:07:47;;;;;;;1.60;1.47;;;18.40;99.90;;;;;;5014709;28;20925;-62
2021/06/24 09:10:13;;;;;;;1.50;1.40;;;18.30;99.90;;;;;;5019829;28;20529;-60
2021/06/24 09:12:56;;;;;;;2.90;1.70;;;18.40;99.90;;;;;;5015506;28;20438;-60
2021/06/24 09:15:33;;;;;;;1.53;1.43;;;18.40;99.90;;;;;;5018470;28;20426;-61
2021/06/24 09:17:59;;;;;;;2.60;2.23;;;18.60;99.90;;;;;;5022726;28;20840;-61
2021/06/24 09:20:25;;;;;;;2.57;2.07;;;18.90;99.90;;;;;;5019089;28;20437;-61
2021/06/24 09:23:11;;;;;;;1.93;1.60;;;19.10;99.90;;;;;;5022249;28;20601;-61
2021/06/24 09:25:50;;;;;;;3.23;1.90;;;19.30;98.80;;;;;;5021671;28;20176;-60
2021/06/24 09:28:15;;;;;;;2.77;2.10;;;19.30;98.40;;;;;;5019836;28;20462;-63
2021/06/24 09:30:43;;;;;;;3.67;1.90;;;19.30;98.50;;;;;;5020297;28;20431;-60
2021/06/24 09:33:12;;;;;;;6.33;1.80;;;19.30;99.20;;;;;;5022274;28;20679;-61
2021/06/24 09:35:39;;;;;;;2.00;1.87;;;19.20;99.50;;;;;;5020715;28;20476;-61
2021/06/24 09:38:08;;;;;;;1.50;1.40;;;19.20;98.40;;;;;;5012423;28;20523;-61
2021/06/24 09:40:45;;;;;;;1.70;1.60;;;19.10;98.80;;;;;;5020259;28;20422;-61
2021/06/24 09:43:26;;;;;;;2.40;1.67;;;19.10;98.20;;;;;;5016905;28;20497;-61
2021/06/24 09:46:15;;;;;;;1.93;1.70;;;19.10;98.70;;;;;;5023339;28;20489;-61
2021/06/24 09:48:43;;;;;;;1.70;1.60;;;19.30;99.20;;;;;;5019145;28;20458;-62
2021/06/24 09:51:18;;;;;;;1.63;1.27;;;19.40;97.30;;;;;;5007620;28;20445;-61
2021/06/24 09:54:04;;;;;;;1.10;1.10;;;19.50;95.50;;;;;;5017565;28;20481;-58
2021/06/24 09:56:46;;;;;;;1.50;1.40;;;19.60;94.70;;;;;;5016502;28;20418;-62
2021/06/24 09:59:16;;;;;;;1.10;1.07;;;19.70;95.80;;;;;;5023181;28;20504;-62
2021/06/24 10:01:49;;;;;;;1.87;1.50;;;19.80;96.40;;;;;;5018269;28;20787;-62
2021/06/24 10:04:23;;;;;;;2.03;1.40;;;19.80;95.00;;;;;;5018819;28;20493;-62
2021/06/24 10:06:54;;;;;;;1.40;1.33;;;19.80;95.50;;;;;;5020754;28;20510;-60
2021/06/24 10:09:21;;;;;;;1.40;1.30;;;19.80;93.00;;;;;;5019898;28;20446;-62
2021/06/24 10:11:47;;;;;;;1.63;1.53;;;19.70;91.90;;;;;;5018042;28;20426;-61
2021/06/24 10:14:16;;;;;;;2.90;1.40;;;19.50;93.40;;;;;;5018215;28;20427;-61
2021/06/24 10:16:52;;;;;;;1.27;1.27;;;19.40;94.40;;;;;;5014598;28;20426;-57
2021/06/24 10:19:49;;;;;;;3.00;1.77;;;19.30;95.40;;;;;;5020853;28;20449;-61
2021/06/24 10:22:31;;;;;;;1.40;1.30;;;19.30;96.70;;;;;;5015598;28;20446;-61
2021/06/24 10:25:04;;;;;;;2.03;1.40;;;19.30;95.70;;;;;;5021323;28;20790;-61
2021/06/24 10:27:34;;;;;;;1.60;1.50;;;19.30;96.60;;;;;;5016889;28;20524;-62
2021/06/24 10:30:16;;;;;;;1.57;1.47;;;19.40;96.90;;;;;;5021649;28;20473;-62
2021/06/24 10:32:58;;;;;;;2.00;1.73;;;19.40;96.50;;;;;;5019614;28;20437;-63
2021/06/24 10:35:31;;;;;;;1.50;1.40;;;19.60;96.70;;;;;;5018734;28;20514;-59
2021/06/24 10:37:58;;;;;;;2.50;1.40;;;19.90;93.10;;;;;;5018058;28;20447;-59
2021/06/24 10:40:27;;;;;;;1.40;1.30;;;20.10;94.10;;;;;;5015974;28;20488;-60
2021/06/24 10:42:58;;;;;;;1.53;1.43;;;20.10;91.00;;;;;;5017169;28;20438;-59
2021/06/24 10:45:25;;;;;;;1.73;1.40;;;20.10;92.20;;;;;;5020808;28;20427;-58
2021/06/24 10:47:53;;;;;;;1.47;1.37;;;19.90;90.10;;;;;;5022307;28;20466;-59
2021/06/24 10:50:29;;;;;;;1.50;1.40;;;19.70;91.60;;;;;;5019226;28;20430;-58
2021/06/24 10:52:58;;;;;;;1.83;1.30;;;19.50;91.10;;;;;;5018804;28;20426;-57
2021/06/24 10:55:33;;;;;;;1.10;1.10;;;19.40;93.70;;;;;;5017886;28;20525;-58
2021/06/24 10:58:00;;;;;;;1.70;1.60;;;19.30;93.80;;;;;;5017205;28;20465;-57
2021/06/24 11:00:46;;;;;;;1.63;1.20;;;19.30;94.00;;;;;;5014607;28;20431;-57
2021/06/24 11:03:17;;;;;;;1.30;1.20;;;19.30;93.10;;;;;;5015019;28;20462;-58
2021/06/24 11:05:48;;;;;;;1.23;1.10;;;19.30;93.60;;;;;;5015299;28;20435;-60
2021/06/24 11:08:16;;;;;;;1.47;1.17;;;19.20;91.90;;;;;;5020191;28;20540;-57
2021/06/24 11:11:04;;;;;;;1.57;1.43;;;19.20;92.40;;;;;;5018031;28;20481;-60
2021/06/24 11:13:35;;;;;;;2.50;1.40;;;19.20;94.10;;;;;;5017634;28;20439;-61
2021/06/24 11:16:24;;;;;;;1.90;1.37;;;19.30;92.90;;;;;;5018287;28;20427;-62
2021/06/24 11:18:59;;;;;;;1.40;1.30;;;19.30;92.40;;;;;;5012263;28;21014;-62
2021/06/24 11:21:33;;;;;;;1.40;1.30;;;19.40;93.50;;;;;;5017010;28;20438;-62
2021/06/24 11:24:00;;;;;;;1.23;1.23;;;19.60;93.40;;;;;;5020445;28;20430;-62
2021/06/24 11:26:29;;;;;;;1.40;1.30;;;19.70;93.90;;;;;;5018418;28;20438;-63
2021/06/24 11:28:57;;;;;;;1.40;1.30;;;20.10;94.50;;;;;;5018558;28;21002;-63
2021/06/24 11:31:41;;;;;;;1.20;1.10;;;20.60;92.60;;;;;;5015447;28;20434;-63
2021/06/24 11:36:54;;;;;;;1.50;1.40;;;21.70;86.70;;;;;;5016146;28;20882;-62
2021/06/24 11:39:39;;;;;;;1.43;0.93;;;21.90;76.10;;;;;;5019180;28;20446;-63
2021/06/24 11:42:16;;;;;;;1.27;1.17;;;22.10;75.90;;;;;;5015527;28;20520;-62
2021/06/24 11:44:46;;;;;;;1.83;1.10;;;22.10;70.70;;;;;;5019013;28;20524;-63
2021/06/24 11:47:34;;;;;;;1.17;1.00;;;22.00;68.30;;;;;;5015494;28;20446;-61
2021/06/24 12:03:50;;;;;;;1.00;1.00;;;21.40;70.30;;;;;;4963394;28;20829;-62
2021/06/24 12:06:16;;;;;;;1.00;0.90;;;21.30;63.20;;;;;;5006306;28;20987;-63
2021/06/24 12:08:42;;;;;;;0.80;0.80;;;21.10;64.10;;;;;;5019099;28;20219;-62
2021/06/24 12:11:12;;;;;;;0.70;0.70;;;20.90;63.80;;;;;;5020655;28;20430;-61
2021/06/24 12:13:41;;;;;;;2.60;1.10;;;21.10;65.00;;;;;;5023275;28;20187;-62
2021/06/24 12:16:11;;;;;;;1.53;0.80;;;21.30;62.70;;;;;;5023725;28;20446;-60
2021/06/24 12:18:40;;;;;;;2.27;1.30;;;21.50;61.70;;;;;;5021502;28;20486;-59
2021/06/24 12:21:14;;;;;;;0.80;0.80;;;21.70;60.40;;;;;;5017667;28;21169;-61
2021/06/24 12:23:48;;;;;;;1.57;1.10;;;21.80;60.20;;;;;;5024535;28;20467;-60
2021/06/24 12:26:17;;;;;;;0.80;0.80;;;22.10;60.00;;;;;;5026424;28;20445;-60
2021/06/24 12:28:43;;;;;;;2.00;1.50;;;22.30;60.20;;;;;;5028442;28;20466;-60
2021/06/24 12:31:23;;;;;;;1.40;0.90;;;22.50;58.00;;;;;;5027769;28;20999;-61
2021/06/24 12:33:50;;;;;;;1.00;1.00;;;22.60;58.80;;;;;;5026217;28;20569;-61
2021/06/24 12:36:32;;;;;;;2.90;1.17;;;22.80;58.80;;;;;;5024734;28;20434;-60
2021/06/24 12:38:58;;;;;;;1.80;0.80;;;23.00;58.00;;;;;;5028170;28;20472;-62
2021/06/24 12:41:27;;;;;;;0.80;0.80;;;23.20;57.10;;;;;;5027278;28;20955;-61
2021/06/24 12:44:03;;;;;;;0.87;0.87;;;23.40;58.20;;;;;;5027008;28;20543;-61
2021/06/24 12:46:32;;;;;;;0.90;0.90;;;23.70;56.80;;;;;;5028085;28;20445;-61
2021/06/24 12:49:03;;;;;;;1.00;0.90;;;23.80;54.10;;;;;;5027120;28;20493;-62
2021/06/24 12:51:29;;;;;;;1.17;1.07;;;23.80;54.90;;;;;;5023616;28;20437;-62
2021/06/24 12:53:55;;;;;;;0.70;0.70;;;24.00;53.90;;;;;;5026150;28;20955;-60
2021/06/24 12:56:27;;;;;;;1.13;1.03;;;24.10;54.90;;;;;;5022976;28;20431;-62
2021/06/24 12:59:05;;;;;;;1.10;0.93;;;24.30;53.20;;;;;;5023813;28;20207;-60
2021/06/24 13:01:39;;;;;;;0.90;0.90;;;24.50;55.40;;;;;;5024744;28;20452;-60
2021/06/24 13:04:14;;;;;;;1.40;1.30;;;24.80;55.10;;;;;;5020214;28;20427;-60